Time;durP1;ratioP1;P1;durP2;ratioP2;P2;SDS_P1;SDS_P2;PMS_P1;PMS_P2;Temp;Humidity;BMP_temperature;BMP_pressure;BME280_temperature;BME280_humidity;BME280_pressure;Samples;Min_cycle;Max_cycle;Signal;HPM_P1;HPM_P2
2023/06/16 00:00:35;;;;;;;1999.90;999.90;;;17.60;99.90;;;;;;5072590;28;20804;-76
2023/06/16 00:03:02;;;;;;;1999.90;999.90;;;17.60;99.90;;;;;;5054712;28;20425;-75
2023/06/16 00:05:29;;;;;;;1999.90;999.90;;;17.60;99.90;;;;;;5064493;28;20420;-76
2023/06/16 00:07:58;;;;;;;1999.90;999.90;;;17.60;99.90;;;;;;5073431;28;20419;-75
2023/06/16 00:10:25;;;;;;;1999.90;999.90;;;17.50;99.90;;;;;;5072893;28;20420;-76
2023/06/16 00:12:54;;;;;;;1999.90;999.90;;;17.50;99.90;;;;;;5072711;28;20411;-75
2023/06/16 00:15:21;;;;;;;1999.90;999.90;;;17.50;99.90;;;;;;5060427;28;20501;-75
2023/06/16 00:17:49;;;;;;;1999.90;999.90;;;17.60;99.90;;;;;;5061126;28;20421;-75
2023/06/16 00:20:19;;;;;;;1999.90;999.90;;;17.70;99.90;;;;;;5070853;28;20509;-75
2023/06/16 00:22:47;;;;;;;1999.90;999.90;;;17.70;99.90;;;;;;5073455;28;20454;-75
2023/06/16 00:25:15;;;;;;;1999.90;999.90;;;17.60;99.90;;;;;;5073834;28;20451;-75
2023/06/16 00:27:41;;;;;;;1999.90;999.90;;;17.40;99.90;;;;;;5058355;28;20921;-75
2023/06/16 00:30:11;;;;;;;1999.90;999.90;;;17.40;99.90;;;;;;5056280;28;20429;-75
2023/06/16 00:32:38;;;;;;;1999.90;999.90;;;17.30;99.90;;;;;;5053726;28;20491;-75
2023/06/16 00:35:05;;;;;;;1999.90;999.90;;;17.40;99.90;;;;;;5053511;28;20427;-75
2023/06/16 00:37:32;;;;;;;1999.90;999.90;;;17.20;99.90;;;;;;5052866;28;20417;-75
2023/06/16 00:39:59;;;;;;;1999.90;999.90;;;17.10;99.90;;;;;;5057810;28;20863;-75
2023/06/16 00:42:25;;;;;;;1999.90;999.90;;;17.10;99.90;;;;;;5062494;28;20867;-76
2023/06/16 00:44:52;;;;;;;1999.90;999.90;;;17.20;99.90;;;;;;5080261;22;20442;-74
2023/06/16 00:47:20;;;;;;;1999.90;999.90;;;17.20;99.90;;;;;;5053163;28;20436;-74
2023/06/16 00:49:47;;;;;;;1999.90;999.90;;;17.20;99.90;;;;;;5059318;28;20433;-74
2023/06/16 00:52:15;;;;;;;1999.90;999.90;;;17.20;99.90;;;;;;5069491;28;20465;-74
2023/06/16 00:54:43;;;;;;;1999.90;999.90;;;17.10;99.90;;;;;;5072039;28;20902;-74
2023/06/16 00:57:10;;;;;;;1999.90;999.90;;;17.00;99.90;;;;;;5066169;28;20429;-72
2023/06/16 00:59:37;;;;;;;1999.90;999.90;;;17.00;99.90;;;;;;5063152;28;20916;-76
2023/06/16 01:02:05;;;;;;;1999.90;999.90;;;17.20;99.90;;;;;;5071558;28;20485;-78
2023/06/16 01:04:33;;;;;;;1999.90;999.90;;;16.90;99.90;;;;;;5071779;28;20420;-77
2023/06/16 01:07:09;;;;;;;1999.90;999.90;;;16.90;99.90;;;;;;5064726;28;20441;-73
2023/06/16 01:09:44;;;;;;;1999.90;999.90;;;16.80;99.90;;;;;;5063407;28;20554;-75
2023/06/16 01:12:18;;;;;;;1999.90;999.90;;;16.80;99.90;;;;;;5071066;28;20449;-72
2023/06/16 01:14:52;;;;;;;1999.90;999.90;;;16.80;99.90;;;;;;5071988;28;20419;-74
2023/06/16 01:17:22;;;;;;;1999.90;999.90;;;16.80;99.90;;;;;;5064774;28;20431;-73
2023/06/16 01:20:07;;;;;;;1999.90;999.90;;;16.70;99.90;;;;;;5066113;28;20898;-74
2023/06/16 01:22:53;;;;;;;1999.90;999.90;;;16.80;99.90;;;;;;5072027;28;20505;-74
2023/06/16 01:25:23;;;;;;;1999.90;999.90;;;16.90;99.90;;;;;;5071844;28;20886;-74
2023/06/16 01:27:51;;;;;;;1999.90;999.90;;;16.80;99.90;;;;;;5062963;28;20440;-74
2023/06/16 01:30:22;;;;;;;1999.90;999.90;;;16.80;99.90;;;;;;5069875;28;20567;-74
2023/06/16 01:32:53;;;;;;;1999.90;999.90;;;16.80;99.90;;;;;;5071995;28;20428;-74
2023/06/16 01:35:21;;;;;;;1999.90;999.90;;;16.80;99.90;;;;;;5070959;28;20411;-74
2023/06/16 01:37:50;;;;;;;1999.90;999.90;;;16.80;99.90;;;;;;5060521;28;20430;-75
2023/06/16 01:40:17;;;;;;;1999.90;999.90;;;16.80;99.90;;;;;;5062492;28;20489;-72
2023/06/16 01:42:47;;;;;;;1999.90;999.90;;;16.80;99.90;;;;;;5070752;28;20416;-71
2023/06/16 01:45:15;;;;;;;1999.90;999.90;;;16.80;99.90;;;;;;5071406;28;20404;-74
2023/06/16 01:47:42;;;;;;;1999.90;999.90;;;16.70;99.90;;;;;;5054482;28;20437;-73
2023/06/16 01:50:10;;;;;;;1999.90;999.90;;;16.60;99.90;;;;;;5057790;28;20435;-73
2023/06/16 01:52:36;;;;;;;1999.90;999.90;;;16.60;99.90;;;;;;5063413;28;20446;-74
2023/06/16 01:55:03;;;;;;;1999.90;999.90;;;16.60;99.90;;;;;;5071223;28;20485;-74
2023/06/16 01:57:30;;;;;;;1999.90;999.90;;;16.60;99.90;;;;;;5058723;28;20479;-74
2023/06/16 02:00:03;;;;;;;1999.90;999.90;;;16.50;99.90;;;;;;5058348;28;20776;-75
2023/06/16 02:02:31;;;;;;;1999.90;999.90;;;16.40;99.90;;;;;;5050701;28;20421;-74
2023/06/16 02:05:03;;;;;;;1999.90;999.90;;;16.40;99.90;;;;;;5050636;28;20413;-73
2023/06/16 02:07:35;;;;;;;1999.90;999.90;;;16.40;99.90;;;;;;5052691;28;20466;-73
2023/06/16 02:10:03;;;;;;;1999.90;999.90;;;16.50;99.90;;;;;;5061862;28;20426;-73
2023/06/16 02:12:31;;;;;;;1999.90;999.90;;;16.60;99.90;;;;;;5070095;28;20500;-74
2023/06/16 02:14:59;;;;;;;1999.90;999.90;;;16.60;99.90;;;;;;5070196;28;20416;-74
2023/06/16 02:17:26;;;;;;;1999.90;999.90;;;16.60;99.90;;;;;;5064470;28;20435;-74
2023/06/16 02:19:53;;;;;;;1999.90;999.90;;;16.60;99.90;;;;;;5061692;28;20423;-74
2023/06/16 02:22:20;;;;;;;1999.90;999.90;;;16.60;99.90;;;;;;5064822;28;20495;-74
2023/06/16 02:24:48;;;;;;;1999.90;999.90;;;16.50;99.90;;;;;;5061668;28;20933;-74
2023/06/16 02:27:15;;;;;;;1999.90;999.90;;;16.50;99.90;;;;;;5064924;28;20433;-74
2023/06/16 02:29:42;;;;;;;1999.90;999.90;;;16.50;99.90;;;;;;5061574;28;20407;-73
2023/06/16 02:32:10;;;;;;;1999.90;999.90;;;16.30;99.90;;;;;;5070071;28;20472;-73
2023/06/16 02:34:36;;;;;;;1999.90;999.90;;;16.40;99.90;;;;;;5070134;28;20416;-75
2023/06/16 02:37:03;;;;;;;1999.90;999.90;;;16.30;99.90;;;;;;5066420;28;20411;-76
2023/06/16 02:39:30;;;;;;;1999.90;999.90;;;16.20;99.90;;;;;;5059985;28;20890;-77
2023/06/16 02:41:56;;;;;;;1999.90;999.90;;;16.10;99.90;;;;;;5061045;28;20863;-76
2023/06/16 02:44:23;;;;;;;1999.90;999.90;;;16.00;99.90;;;;;;5069791;28;20416;-76
2023/06/16 02:46:50;;;;;;;1999.90;999.90;;;15.90;99.90;;;;;;5070165;28;20419;-76
2023/06/16 02:49:19;;;;;;;1999.90;999.90;;;15.80;99.90;;;;;;5057546;28;20602;-76
2023/06/16 02:51:45;;;;;;;1999.90;999.90;;;15.70;99.90;;;;;;5049571;28;20436;-76
2023/06/16 02:54:12;;;;;;;1999.90;999.90;;;15.70;99.90;;;;;;5049794;28;20417;-75
2023/06/16 02:56:39;;;;;;;1999.90;999.90;;;15.60;99.90;;;;;;5049964;28;20421;-73
2023/06/16 02:59:06;;;;;;;1999.90;999.90;;;15.60;99.90;;;;;;5057157;28;20450;-73
2023/06/16 03:01:32;;;;;;;1999.90;999.90;;;15.50;99.90;;;;;;5052840;28;20412;-75
2023/06/16 03:03:59;;;;;;;1999.90;999.90;;;15.60;99.90;;;;;;5073691;28;20906;-74
2023/06/16 03:06:29;;;;;;;1999.90;999.90;;;15.70;99.90;;;;;;5073972;28;20416;-74
2023/06/16 03:08:56;;;;;;;1999.90;999.90;;;15.80;99.90;;;;;;5064009;28;20818;-74
2023/06/16 03:11:22;;;;;;;1999.90;999.90;;;15.80;99.90;;;;;;5064884;28;20473;-73
2023/06/16 03:13:49;;;;;;;1999.90;999.90;;;15.90;99.90;;;;;;5074064;28;20415;-76
2023/06/16 03:16:16;;;;;;;1999.90;999.90;;;15.90;99.90;;;;;;5074075;28;20453;-73
2023/06/16 03:18:43;;;;;;;1999.90;999.90;;;15.90;99.90;;;;;;5064385;28;20433;-73
2023/06/16 03:21:10;;;;;;;1999.90;999.90;;;16.10;99.90;;;;;;5064803;28;20408;-77
2023/06/16 03:23:38;;;;;;;1999.90;999.90;;;16.20;99.90;;;;;;5073647;28;20411;-76
2023/06/16 03:26:04;;;;;;;1999.90;999.90;;;16.10;99.90;;;;;;5074007;28;20415;-75
2023/06/16 03:28:31;;;;;;;1999.90;999.90;;;16.00;99.90;;;;;;5064595;28;20429;-75
2023/06/16 03:30:58;;;;;;;1999.90;999.90;;;16.00;99.90;;;;;;5064320;28;20454;-75
2023/06/16 03:33:24;;;;;;;1999.90;999.90;;;16.00;99.90;;;;;;5073560;28;20909;-73
2023/06/16 03:35:51;;;;;;;1999.90;999.90;;;16.10;99.90;;;;;;5073857;28;20407;-74
2023/06/16 03:38:17;;;;;;;1999.90;999.90;;;16.00;99.90;;;;;;5064091;28;20432;-73
2023/06/16 03:40:45;;;;;;;1999.90;999.90;;;16.00;99.90;;;;;;5060866;28;20442;-74
2023/06/16 03:43:12;;;;;;;1999.90;999.90;;;16.00;99.90;;;;;;5070277;28;20415;-74
2023/06/16 03:45:39;;;;;;;1999.90;999.90;;;16.00;99.90;;;;;;5073364;28;20449;-75
2023/06/16 03:48:07;;;;;;;1999.90;999.90;;;16.10;99.90;;;;;;5073597;28;20411;-74
2023/06/16 03:50:34;;;;;;;1999.90;999.90;;;16.10;99.90;;;;;;5061520;28;20479;-74
2023/06/16 03:53:00;;;;;;;1999.90;999.90;;;16.00;99.90;;;;;;5068076;28;20602;-72
2023/06/16 03:55:28;;;;;;;1999.90;999.90;;;15.90;99.90;;;;;;5073348;28;20422;-72
2023/06/16 03:57:56;;;;;;;1999.90;999.90;;;16.00;99.90;;;;;;5063000;28;20443;-70
2023/06/16 04:00:23;;;;;;;1999.90;999.90;;;15.90;99.90;;;;;;5047366;28;20441;-75
2023/06/16 04:02:50;;;;;;;1999.90;999.90;;;15.90;99.90;;;;;;5046212;28;20419;-72
2023/06/16 04:05:17;;;;;;;1999.90;999.90;;;15.80;99.90;;;;;;5042561;28;20428;-72
2023/06/16 04:07:44;;;;;;;1999.90;999.90;;;15.90;99.90;;;;;;5043588;28;20442;-77
2023/06/16 04:10:11;;;;;;;1999.90;999.90;;;15.90;99.90;;;;;;5045250;28;20437;-74
2023/06/16 04:12:38;;;;;;;1999.90;999.90;;;16.00;99.90;;;;;;5049065;28;20436;-75
2023/06/16 04:15:06;;;;;;;1999.90;999.90;;;16.00;99.90;;;;;;5046138;28;20420;-75
2023/06/16 04:17:35;;;;;;;1999.90;999.90;;;16.10;99.90;;;;;;5052016;28;20600;-73
2023/06/16 04:20:04;;;;;;;1999.90;999.90;;;16.20;99.90;;;;;;5056859;28;20435;-74
2023/06/16 04:22:31;;;;;;;1999.90;999.90;;;16.20;99.90;;;;;;5064279;28;20411;-75
2023/06/16 04:24:57;;;;;;;1999.90;999.90;;;16.30;99.90;;;;;;5072868;28;20824;-74
2023/06/16 04:27:25;;;;;;;1999.90;999.90;;;16.30;99.90;;;;;;5072436;28;20407;-75
2023/06/16 04:29:52;;;;;;;1999.90;999.90;;;16.30;99.90;;;;;;5062519;28;20466;-75
2023/06/16 04:32:20;;;;;;;1999.90;999.90;;;16.40;99.90;;;;;;5061326;28;21045;-74
2023/06/16 04:34:49;;;;;;;1999.90;999.90;;;16.40;99.90;;;;;;5054284;28;20477;-74
2023/06/16 04:37:16;;;;;;;1999.90;999.90;;;16.40;99.90;;;;;;5049820;28;20422;-74
2023/06/16 04:39:43;;;;;;;1999.90;999.90;;;16.50;99.90;;;;;;5054696;28;20427;-74
2023/06/16 04:42:10;;;;;;;1999.90;999.90;;;16.70;99.90;;;;;;5063851;28;20411;-74
2023/06/16 04:44:36;;;;;;;1999.90;999.90;;;16.70;99.90;;;;;;5071565;28;20933;-75
2023/06/16 04:47:04;;;;;;;1999.90;999.90;;;16.80;99.90;;;;;;5071670;28;20841;-73
2023/06/16 04:49:32;;;;;;;1999.90;999.90;;;16.80;99.90;;;;;;5065562;28;20440;-74
2023/06/16 04:51:59;;;;;;;1999.90;999.90;;;16.80;99.90;;;;;;5063175;28;20428;-75
2023/06/16 04:54:26;;;;;;;1999.90;999.90;;;16.90;99.90;;;;;;5071873;28;20500;-75
2023/06/16 04:56:52;;;;;;;1999.90;999.90;;;16.80;99.90;;;;;;5071234;28;20415;-75
2023/06/16 04:59:19;;;;;;;1999.90;999.90;;;16.70;99.90;;;;;;5067172;28;21287;-75
2023/06/16 05:01:45;;;;;;;1999.90;999.90;;;16.80;99.90;;;;;;5052890;28;20831;-75
2023/06/16 05:04:12;;;;;;;1999.90;999.90;;;16.80;99.90;;;;;;5051558;28;20420;-75
2023/06/16 05:06:40;;;;;;;1999.90;999.90;;;16.80;99.90;;;;;;5051459;28;20459;-76
2023/06/16 05:09:07;;;;;;;1999.90;999.90;;;16.60;99.90;;;;;;5051622;28;20409;-76
2023/06/16 05:11:33;;;;;;;1999.90;999.90;;;16.70;99.90;;;;;;5053112;28;20779;-76
2023/06/16 05:14:00;;;;;;;1999.90;999.90;;;16.60;99.90;;;;;;5062730;28;20420;-73
2023/06/16 05:16:27;;;;;;;1999.90;999.90;;;16.50;99.90;;;;;;5071488;28;20412;-74
2023/06/16 05:18:53;;;;;;;1999.90;999.90;;;16.50;99.90;;;;;;5070983;28;20416;-74
2023/06/16 05:21:24;;;;;;;1999.90;999.90;;;16.50;99.90;;;;;;5070531;28;20416;-74
2023/06/16 05:23:53;;;;;;;1999.90;999.90;;;16.50;99.90;;;;;;5065475;28;20886;-74
2023/06/16 05:26:20;;;;;;;1999.90;999.90;;;16.70;99.90;;;;;;5061774;28;20963;-73
2023/06/16 05:28:47;;;;;;;1999.90;999.90;;;17.10;99.90;;;;;;5070677;28;20459;-74
2023/06/16 05:31:15;;;;;;;1999.90;999.90;;;16.80;99.90;;;;;;5070389;28;20465;-74
2023/06/16 05:33:41;;;;;;;1999.90;999.90;;;16.80;99.90;;;;;;5071322;28;20836;-72
2023/06/16 05:36:08;;;;;;;1999.90;999.90;;;16.90;99.90;;;;;;5065079;28;20427;-74
2023/06/16 05:38:35;;;;;;;1999.90;999.90;;;16.80;99.90;;;;;;5053593;28;20489;-73
2023/06/16 05:41:03;;;;;;;1999.90;999.90;;;16.90;99.90;;;;;;5069821;28;20901;-75
2023/06/16 05:43:29;;;;;;;1999.90;999.90;;;16.90;99.90;;;;;;5071051;28;20477;-76
2023/06/16 05:45:56;;;;;;;1999.90;999.90;;;16.90;99.90;;;;;;5063539;28;20514;-75
2023/06/16 05:48:23;;;;;;;1999.90;999.90;;;17.00;99.90;;;;;;5060479;28;21028;-76
2023/06/16 05:50:50;;;;;;;1999.90;999.90;;;16.90;99.90;;;;;;5069613;28;20967;-76
2023/06/16 05:53:16;;;;;;;1999.90;999.90;;;16.90;99.90;;;;;;5070406;28;20495;-77
2023/06/16 05:55:43;;;;;;;1999.90;999.90;;;16.90;99.90;;;;;;5066976;28;20416;-76
2023/06/16 05:58:11;;;;;;;1999.90;999.90;;;16.80;99.90;;;;;;5059389;28;20418;-77
2023/06/16 06:00:37;;;;;;;1999.90;999.90;;;16.90;99.90;;;;;;5069650;28;20432;-75
2023/06/16 06:03:04;;;;;;;1999.90;999.90;;;16.80;99.90;;;;;;5069333;28;20775;-73
2023/06/16 06:05:31;;;;;;;1999.90;999.90;;;16.80;99.90;;;;;;5070266;28;20423;-75
2023/06/16 06:07:58;;;;;;;1999.90;999.90;;;16.80;99.90;;;;;;5063310;28;20491;-74
2023/06/16 06:10:24;;;;;;;1999.90;999.90;;;16.90;99.90;;;;;;5060078;28;20424;-72
2023/06/16 06:12:51;;;;;;;1999.90;999.90;;;16.70;99.90;;;;;;5069754;28;20431;-73
2023/06/16 06:15:19;;;;;;;1999.90;999.90;;;16.70;99.90;;;;;;5070433;28;20956;-73
2023/06/16 06:17:46;;;;;;;1999.90;999.90;;;16.90;99.90;;;;;;5069855;28;20841;-74
2023/06/16 06:20:13;;;;;;;1999.90;999.90;;;17.00;99.90;;;;;;5059829;28;20523;-74
2023/06/16 06:22:39;;;;;;;1999.90;999.90;;;17.00;99.90;;;;;;5061217;28;20469;-72
2023/06/16 06:25:07;;;;;;;1999.90;999.90;;;16.80;99.90;;;;;;5070381;28;20412;-75
2023/06/16 06:27:33;;;;;;;1999.90;999.90;;;16.80;99.90;;;;;;5070201;28;20469;-71
2023/06/16 06:30:00;;;;;;;1999.90;999.90;;;16.50;99.90;;;;;;5070095;28;20481;-72
2023/06/16 06:32:28;;;;;;;1999.90;999.90;;;16.60;99.90;;;;;;5062647;28;20995;-73
2023/06/16 06:34:54;;;;;;;1999.90;999.90;;;16.90;99.90;;;;;;5064704;28;20415;-72
2023/06/16 06:37:26;;;;;;;1999.90;999.90;;;17.20;99.90;;;;;;5068470;28;20649;-72
2023/06/16 06:39:53;;;;;;;1999.90;999.90;;;17.50;99.90;;;;;;5069871;28;20428;-73
2023/06/16 06:42:20;;;;;;;1999.90;999.90;;;17.80;99.90;;;;;;5059903;28;20437;-74
2023/06/16 06:44:46;;;;;;;1999.90;999.90;;;18.00;99.90;;;;;;5054715;28;20777;-70
2023/06/16 06:47:13;;;;;;;1999.90;999.90;;;18.00;99.90;;;;;;5058192;28;20846;-73
2023/06/16 06:49:41;;;;;;;1999.90;999.90;;;18.20;99.90;;;;;;5069867;28;20824;-74
2023/06/16 06:52:08;;;;;;;1999.90;999.90;;;18.20;99.90;;;;;;5068634;28;20427;-73
2023/06/16 06:54:35;;;;;;;1999.90;999.90;;;18.30;99.90;;;;;;5065170;28;20441;-72
2023/06/16 06:57:01;;;;;;;1999.90;999.90;;;18.40;99.90;;;;;;5057929;28;20421;-73
2023/06/16 06:59:28;;;;;;;1999.90;999.90;;;18.40;99.90;;;;;;5068602;28;20458;-71
2023/06/16 07:01:55;;;;;;;1999.90;999.90;;;18.10;99.90;;;;;;5068942;28;20423;-72
2023/06/16 07:04:21;;;;;;;1999.90;999.90;;;18.20;99.90;;;;;;5069594;28;20411;-73
2023/06/16 07:06:50;;;;;;;1999.90;999.90;;;18.80;99.90;;;;;;5059146;28;20450;-72
2023/06/16 07:09:16;;;;;;;1999.90;999.90;;;18.60;99.90;;;;;;5056280;28;20911;-73
2023/06/16 07:11:43;;;;;;;1999.90;999.90;;;18.90;99.90;;;;;;5069118;28;20407;-72
2023/06/16 07:14:10;;;;;;;1999.90;999.90;;;18.80;99.90;;;;;;5069760;28;20423;-70
2023/06/16 07:16:37;;;;;;;1999.90;999.90;;;18.90;99.90;;;;;;5069644;28;20451;-72
2023/06/16 07:19:04;;;;;;;1999.90;999.90;;;18.80;99.90;;;;;;5065409;28;20848;-74
2023/06/16 07:21:31;;;;;;;1999.90;999.90;;;19.00;99.90;;;;;;5060829;28;20459;-71
2023/06/16 07:23:59;;;;;;;1999.90;999.90;;;18.70;99.90;;;;;;5066634;28;20404;-72
2023/06/16 07:26:26;;;;;;;1999.90;999.90;;;18.70;99.90;;;;;;5053694;28;20433;-72
2023/06/16 07:28:52;;;;;;;1999.90;999.90;;;18.90;99.90;;;;;;5058039;28;20486;-70
2023/06/16 07:31:19;;;;;;;1999.90;999.90;;;18.90;99.90;;;;;;5067061;28;20415;-73
2023/06/16 07:33:46;;;;;;;1999.90;999.90;;;19.10;99.90;;;;;;5069033;28;20500;-73
2023/06/16 07:36:13;;;;;;;1999.90;999.90;;;19.20;99.90;;;;;;5069663;28;20415;-71
2023/06/16 07:38:39;;;;;;;1999.90;999.90;;;19.50;99.90;;;;;;5061636;28;20847;-72
2023/06/16 07:41:07;;;;;;;1999.90;999.90;;;19.70;99.90;;;;;;5064933;28;20918;-73
2023/06/16 07:43:34;;;;;;;1999.90;999.90;;;19.60;99.90;;;;;;5068766;28;20469;-72
2023/06/16 07:46:01;;;;;;;1999.90;999.90;;;19.70;99.90;;;;;;5068999;28;20923;-74
2023/06/16 07:48:27;;;;;;;1999.90;999.90;;;19.50;99.90;;;;;;5070984;28;20419;-73
2023/06/16 07:50:54;;;;;;;1999.90;999.90;;;20.00;99.90;;;;;;5062100;28;20427;-71
2023/06/16 07:53:21;;;;;;;1999.90;999.90;;;19.70;99.90;;;;;;5060149;28;20473;-73
2023/06/16 07:55:48;;;;;;;1999.90;999.90;;;19.90;99.90;;;;;;5052919;28;20421;-73
2023/06/16 07:58:16;;;;;;;1999.90;999.90;;;20.30;99.90;;;;;;5071251;28;20767;-73
2023/06/16 08:00:42;;;;;;;1999.90;999.90;;;20.00;99.90;;;;;;5072713;28;20469;-74
2023/06/16 08:03:09;;;;;;;1999.90;999.90;;;19.60;99.90;;;;;;5051425;28;20502;-74
2023/06/16 08:05:36;;;;;;;1999.90;999.90;;;19.80;99.90;;;;;;5063657;28;20805;-74
2023/06/16 08:08:03;;;;;;;1999.90;999.90;;;19.80;99.90;;;;;;5041678;28;20421;-72
2023/06/16 08:10:29;;;;;;;1999.90;999.90;;;19.80;99.90;;;;;;5052498;28;20440;-73
2023/06/16 08:12:56;;;;;;;1999.90;999.90;;;19.40;99.90;;;;;;5057147;28;20435;-72
2023/06/16 08:15:24;;;;;;;1999.90;999.90;;;19.60;99.90;;;;;;5064193;28;20422;-73
2023/06/16 08:17:50;;;;;;;1999.90;999.90;;;19.80;99.90;;;;;;5072117;28;20415;-73
2023/06/16 08:20:17;;;;;;;1999.90;999.90;;;19.90;99.90;;;;;;5072353;28;20469;-74
2023/06/16 08:22:44;;;;;;;1999.90;999.90;;;20.20;99.90;;;;;;5072128;28;20412;-72
2023/06/16 08:25:11;;;;;;;1999.90;999.90;;;19.40;99.90;;;;;;5056172;28;20923;-74
2023/06/16 08:27:37;;;;;;;1999.90;999.90;;;19.70;99.90;;;;;;5063630;28;20894;-73
2023/06/16 08:30:05;;;;;;;1999.90;999.90;;;19.80;99.90;;;;;;5072079;28;20416;-72
2023/06/16 08:32:33;;;;;;;1999.90;999.90;;;19.90;99.90;;;;;;5071912;28;20943;-72
2023/06/16 08:35:00;;;;;;;1999.90;999.90;;;20.70;99.90;;;;;;5072087;28;20411;-72
2023/06/16 08:37:27;;;;;;;1999.90;999.90;;;20.50;99.90;;;;;;5063046;28;20443;-73
2023/06/16 08:39:54;;;;;;;1999.90;999.90;;;20.10;99.90;;;;;;5065954;28;20777;-74
2023/06/16 08:42:21;;;;;;;1999.90;999.90;;;20.20;99.90;;;;;;5069976;28;20412;-72
2023/06/16 08:44:49;;;;;;;1999.90;999.90;;;20.30;99.90;;;;;;5059176;28;20413;-73
2023/06/16 08:47:15;;;;;;;1999.90;999.90;;;20.10;99.90;;;;;;5059610;28;20475;-73
2023/06/16 08:49:44;;;;;;;1999.90;999.90;;;20.30;99.90;;;;;;5051362;28;20418;-73
2023/06/16 08:52:16;;;;;;;1999.90;999.90;;;20.70;99.90;;;;;;5050904;28;20440;-74
2023/06/16 08:54:48;;;;;;;1999.90;999.90;;;20.70;99.90;;;;;;5058177;28;20991;-73
2023/06/16 08:57:17;;;;;;;1999.90;999.90;;;20.90;99.90;;;;;;5051736;28;20421;-73
2023/06/16 08:59:47;;;;;;;1999.90;999.90;;;21.00;99.90;;;;;;5050340;28;20427;-72
2023/06/16 09:02:13;;;;;;;1999.90;999.90;;;20.70;99.90;;;;;;5051555;28;20433;-72
2023/06/16 09:04:41;;;;;;;1999.90;999.90;;;20.40;99.90;;;;;;5063054;28;20412;-72
2023/06/16 09:07:10;;;;;;;1999.90;999.90;;;20.30;99.90;;;;;;5071407;28;20451;-72
2023/06/16 09:09:38;;;;;;;1999.90;999.90;;;20.10;99.90;;;;;;5071209;28;20427;-72
2023/06/16 09:12:07;;;;;;;1999.90;999.90;;;20.00;99.90;;;;;;5062446;28;20483;-73
2023/06/16 09:14:36;;;;;;;1999.90;999.90;;;19.90;99.90;;;;;;5045976;28;20431;-72
2023/06/16 09:17:05;;;;;;;1999.90;999.90;;;20.00;99.90;;;;;;5062842;28;20450;-72
2023/06/16 09:19:34;;;;;;;1999.90;999.90;;;19.80;99.90;;;;;;5070546;28;20420;-72
2023/06/16 09:22:00;;;;;;;1999.90;999.90;;;19.60;99.90;;;;;;5071095;28;20841;-72
2023/06/16 09:24:29;;;;;;;1999.90;999.90;;;19.60;99.90;;;;;;5060465;28;20429;-73
2023/06/16 09:26:59;;;;;;;1999.90;999.90;;;19.60;99.90;;;;;;5062689;28;20423;-72
2023/06/16 09:29:27;;;;;;;1999.90;999.90;;;19.50;99.90;;;;;;5070950;28;20416;-72
2023/06/16 09:32:06;;;;;;;1999.90;999.90;;;19.40;99.90;;;;;;5071057;28;20915;-72
2023/06/16 09:34:33;;;;;;;1999.90;999.90;;;19.40;99.90;;;;;;5070723;28;20893;-72
2023/06/16 09:37:00;;;;;;;1999.90;999.90;;;19.40;99.90;;;;;;5062515;28;20601;-72
2023/06/16 09:39:29;;;;;;;1999.90;999.90;;;19.30;99.90;;;;;;5062161;28;20904;-73
2023/06/16 09:41:58;;;;;;;1999.90;999.90;;;19.40;99.90;;;;;;5070935;28;20447;-73
2023/06/16 09:44:26;;;;;;;1999.90;999.90;;;19.60;99.90;;;;;;5070705;28;20411;-71
2023/06/16 09:46:54;;;;;;;1999.90;999.90;;;19.60;99.90;;;;;;5063647;28;20427;-72
2023/06/16 09:49:22;;;;;;;1999.90;999.90;;;19.80;99.90;;;;;;5062085;28;20445;-71
2023/06/16 09:51:53;;;;;;;1999.90;999.90;;;19.80;99.90;;;;;;5070493;28;20419;-73
2023/06/16 09:54:21;;;;;;;1999.90;999.90;;;20.00;99.90;;;;;;5065592;28;20463;-71
2023/06/16 09:56:50;;;;;;;1999.90;999.90;;;20.20;99.90;;;;;;5070766;28;20416;-72
2023/06/16 09:59:17;;;;;;;1999.90;999.90;;;20.10;99.90;;;;;;5064008;28;20463;-73
2023/06/16 10:04:10;;;;;;;1999.90;999.90;;;21.20;99.90;;;;;;5099727;22;20521;-76
2023/06/16 10:06:40;;;;;;;1999.90;999.90;;;21.20;99.90;;;;;;5070864;28;20419;-75
2023/06/16 10:09:10;;;;;;;1999.90;999.90;;;21.10;99.90;;;;;;5071158;28;20473;-75
2023/06/16 10:11:39;;;;;;;1999.90;999.90;;;21.30;99.90;;;;;;5073181;28;20425;-71
2023/06/16 10:14:09;;;;;;;1999.90;999.90;;;21.40;99.90;;;;;;5082281;28;20428;-76
2023/06/16 10:16:38;;;;;;;1999.90;999.90;;;21.50;99.90;;;;;;5091371;28;20414;-75
2023/06/16 10:19:07;;;;;;;1999.90;999.90;;;21.40;99.90;;;;;;5091046;28;20417;-75
2023/06/16 10:21:34;;;;;;;1999.90;999.90;;;21.60;99.90;;;;;;5090444;28;20418;-76
2023/06/16 10:24:02;;;;;;;1999.90;999.90;;;21.80;99.90;;;;;;5077762;28;20475;-75
2023/06/16 10:26:29;;;;;;;1999.90;999.90;;;22.00;99.90;;;;;;5082438;28;20413;-76
2023/06/16 10:28:56;;;;;;;1999.90;999.90;;;22.30;99.90;;;;;;5090956;28;20406;-76
2023/06/16 10:31:27;;;;;;;1999.90;999.90;;;21.80;99.90;;;;;;5090317;28;20463;-71
2023/06/16 10:33:56;;;;;;;1999.90;999.90;;;21.90;99.90;;;;;;5078931;28;20463;-76
2023/06/16 10:36:24;;;;;;;1999.90;999.90;;;21.90;99.90;;;;;;5081144;28;20915;-75
2023/06/16 10:38:57;;;;;;;1999.90;999.90;;;21.90;99.90;;;;;;5085125;28;20508;-75
2023/06/16 10:41:23;;;;;;;1999.90;999.90;;;22.30;99.90;;;;;;5090068;28;20453;-75
2023/06/16 10:43:50;;;;;;;1999.90;999.90;;;22.50;99.90;;;;;;5089899;28;20946;-75
2023/06/16 10:46:18;;;;;;;1999.90;999.90;;;22.80;99.90;;;;;;5079628;28;20906;-74
2023/06/16 10:49:11;;;;;;;1999.90;999.90;;;23.10;99.90;;;;;;5090583;28;20414;-76
2023/06/16 10:51:47;;;;;;;1999.90;999.90;;;22.90;99.90;;;;;;5090139;28;20422;-75
2023/06/16 10:54:16;;;;;;;1999.90;999.90;;;23.30;99.90;;;;;;5087858;28;20426;-75
2023/06/16 10:57:02;;;;;;;1999.90;999.90;;;23.20;99.90;;;;;;5082233;28;20444;-75
2023/06/16 10:59:30;;;;;;;1999.90;999.90;;;22.90;99.90;;;;;;5090258;28;20451;-76
2023/06/16 11:01:57;;;;;;;1999.90;999.90;;;23.00;99.90;;;;;;5089774;28;20838;-75
2023/06/16 11:04:26;;;;;;;1999.90;999.90;;;23.20;99.90;;;;;;5085912;28;20409;-75
2023/06/16 11:07:11;;;;;;;1999.90;999.90;;;22.80;99.90;;;;;;5073108;28;20962;-75
2023/06/16 11:09:37;;;;;;;1999.90;999.90;;;22.10;99.90;;;;;;5052163;28;20432;-73
2023/06/16 11:12:06;;;;;;;1999.90;999.90;;;22.40;99.90;;;;;;5054105;28;21128;-75
2023/06/16 11:14:33;;;;;;;1999.90;999.90;;;22.30;99.90;;;;;;5080095;28;20483;-75
2023/06/16 11:16:59;;;;;;;1999.90;999.90;;;22.80;99.90;;;;;;5091746;28;20422;-75
2023/06/16 11:19:27;;;;;;;1999.90;999.90;;;23.10;99.90;;;;;;5090603;28;20948;-75
2023/06/16 11:21:54;;;;;;;1999.90;999.90;;;23.20;99.90;;;;;;5090486;28;20410;-75
2023/06/16 11:24:21;;;;;;;1999.90;999.90;;;23.30;99.90;;;;;;5081262;28;20432;-74
2023/06/16 11:26:47;;;;;;;1999.90;999.90;;;23.30;99.90;;;;;;5082041;28;20922;-75
2023/06/16 11:29:15;;;;;;;1999.90;999.90;;;23.60;99.90;;;;;;5091615;28;20417;-71
2023/06/16 11:31:42;;;;;;;1999.90;999.90;;;23.70;99.90;;;;;;5094254;28;20410;-75
2023/06/16 11:34:08;;;;;;;1999.90;999.90;;;23.70;99.50;;;;;;5088022;28;20891;-75
2023/06/16 11:36:36;;;;;;;1999.90;999.90;;;24.10;99.80;;;;;;5086186;28;20479;-75
2023/06/16 11:39:11;;;;;;;1999.90;999.90;;;24.50;99.20;;;;;;5082275;28;20420;-75
2023/06/16 11:41:38;;;;;;;1999.90;999.90;;;24.30;97.90;;;;;;5083284;28;20550;-74
2023/06/16 11:44:05;;;;;;;1999.90;999.90;;;24.20;98.30;;;;;;5077173;28;20490;-74
2023/06/16 11:46:33;;;;;;;1999.90;999.90;;;24.40;98.30;;;;;;5079238;28;20438;-74
2023/06/16 11:49:02;;;;;;;1999.90;999.90;;;25.00;96.30;;;;;;5088114;28;20496;-74
2023/06/16 11:51:28;;;;;;;1999.90;999.90;;;24.90;97.60;;;;;;5093099;28;20409;-75
2023/06/16 11:53:58;;;;;;;1999.90;999.90;;;24.80;96.70;;;;;;5093093;28;20430;-73
2023/06/16 11:56:25;;;;;;;1999.90;999.90;;;25.20;94.50;;;;;;5093476;28;20904;-74
2023/06/16 11:58:52;;;;;;;1999.90;999.90;;;24.90;95.60;;;;;;5078616;28;20462;-73
2023/06/16 12:01:20;;;;;;;1999.90;999.90;;;24.10;95.80;;;;;;5082963;28;20450;-74
2023/06/16 12:03:48;;;;;;;1999.90;999.90;;;24.20;97.20;;;;;;5066891;28;20431;-72